Decoded Metar for EPBY (BYDGOSZCZ in POLAND) (IATA:N/A) | Meteo·Mobile Aviation Weather
aviador You're here:

EPBY Decoded Metar

BYDGOSZCZ in POLAND
Report Time2018-11-12 18:30:00
UTC Time2018-11-12 18:37:06
Flight Rules mvfr MVFR
Wind160° at 08 kt
W.Decomp.*RWY 08: 2.1 kt HW 7.7 kt RCW
W.Rank160° ranks 25
Current wind is above 160° avg. (4.8)
Visibility6000 m
Phenomena:N/A
Clouds:N/A
Expected CloudBase > 800 ft AGL from Temp-Dew spread
CeilingNone
Temp11°C (ISA -4)
Dew Point09°C (88% RH)
AAT7.9°C
QNH1020 hPa
Density Alt-269 ft
Elevation233 ft
Report Wrong Elevation
Raw Report
METAR EPBY 121830Z 16008KT 6000 NSC 11/09 Q1020 =

Extra information for EPBY:More info

Metar Taf Metar & Taf Last 4 Metars F.Rules Stats Wind Profile Meteogram Temp Stats Airport Information Weather charts Add Link Nearby VenuesMetar ALERT Operation Metar Decoded Social comments